sensor_id;sensor_type;location;lat;lon;timestamp;P1;durP1;ratioP1;P2;durP2;ratioP2
44000;SDS011;29660;42.892;24.710;2023-06-26T07:47:39;8.07;;;7.28;;
44000;SDS011;29660;42.892;24.710;2023-06-26T07:53:01;10.23;;;7.38;;
44000;SDS011;29660;42.892;24.710;2023-06-26T08:05:18;9.30;;;6.95;;
44000;SDS011;29660;42.892;24.710;2023-06-26T08:10:41;8.00;;;6.53;;
44000;SDS011;29660;42.892;24.710;2023-06-26T08:16:03;9.80;;;7.75;;
44000;SDS011;29660;42.892;24.710;2023-06-26T08:21:25;11.70;;;7.65;;
44000;SDS011;29660;42.892;24.710;2023-06-26T08:26:48;12.18;;;7.28;;
44000;SDS011;29660;42.892;24.710;2023-06-26T08:32:10;10.45;;;7.95;;
44000;SDS011;29660;42.892;24.710;2023-06-26T08:37:32;8.80;;;7.63;;
44000;SDS011;29660;42.892;24.710;2023-06-26T08:42:54;7.28;;;6.53;;
44000;SDS011;29660;42.892;24.710;2023-06-26T08:48:17;10.55;;;7.45;;
44000;SDS011;29660;42.892;24.710;2023-06-26T08:53:43;7.82;;;6.60;;
44000;SDS011;29660;42.892;24.710;2023-06-26T08:59:17;8.52;;;6.75;;
44000;SDS011;29660;42.892;24.710;2023-06-26T09:04:40;6.72;;;5.95;;
44000;SDS011;29660;42.892;24.710;2023-06-26T09:10:02;6.80;;;6.07;;
44000;SDS011;29660;42.892;24.710;2023-06-26T09:15:25;6.68;;;5.93;;
44000;SDS011;29660;42.892;24.710;2023-06-26T09:20:47;8.13;;;6.28;;
44000;SDS011;29660;42.892;24.710;2023-06-26T09:26:10;7.55;;;5.20;;
44000;SDS011;29660;42.892;24.710;2023-06-26T09:31:33;7.95;;;5.65;;
44000;SDS011;29660;42.892;24.710;2023-06-26T09:37:02;7.50;;;5.78;;
44000;SDS011;29660;42.892;24.710;2023-06-26T09:42:25;13.40;;;6.35;;
44000;SDS011;29660;42.892;24.710;2023-06-26T09:47:47;6.90;;;5.95;;
44000;SDS011;29660;42.892;24.710;2023-06-26T09:53:10;6.45;;;4.90;;
44000;SDS011;29660;42.892;24.710;2023-06-26T09:58:35;6.88;;;5.65;;
44000;SDS011;29660;42.892;24.710;2023-06-26T10:03:59;6.28;;;5.10;;
44000;SDS011;29660;42.892;24.710;2023-06-26T10:09:25;6.80;;;5.10;;
44000;SDS011;29660;42.892;24.710;2023-06-26T10:14:50;6.15;;;5.55;;
44000;SDS011;29660;42.892;24.710;2023-06-26T10:20:15;10.57;;;6.15;;
44000;SDS011;29660;42.892;24.710;2023-06-26T10:25:39;6.93;;;5.68;;
44000;SDS011;29660;42.892;24.710;2023-06-26T10:31:04;8.13;;;4.63;;
44000;SDS011;29660;42.892;24.710;2023-06-26T10:36:30;5.45;;;4.82;;
44000;SDS011;29660;42.892;24.710;2023-06-26T10:41:57;5.75;;;4.60;;
44000;SDS011;29660;42.892;24.710;2023-06-26T10:47:32;5.95;;;4.60;;
44000;SDS011;29660;42.892;24.710;2023-06-26T10:53:07;6.15;;;4.28;;
44000;SDS011;29660;42.892;24.710;2023-06-26T10:58:33;7.88;;;4.75;;
44000;SDS011;29660;42.892;24.710;2023-06-26T11:04:05;4.95;;;4.55;;
44000;SDS011;29660;42.892;24.710;2023-06-26T11:09:29;6.03;;;4.77;;
44000;SDS011;29660;42.892;24.710;2023-06-26T11:14:51;8.18;;;5.00;;
44000;SDS011;29660;42.892;24.710;2023-06-26T11:20:14;5.28;;;4.57;;
44000;SDS011;29660;42.892;24.710;2023-06-26T11:25:40;5.88;;;3.90;;
44000;SDS011;29660;42.892;24.710;2023-06-26T11:31:02;4.25;;;3.80;;
44000;SDS011;29660;42.892;24.710;2023-06-26T11:36:25;5.80;;;3.67;;
44000;SDS011;29660;42.892;24.710;2023-06-26T11:41:48;5.18;;;3.78;;
44000;SDS011;29660;42.892;24.710;2023-06-26T11:47:28;7.82;;;4.30;;
44000;SDS011;29660;42.892;24.710;2023-06-26T11:52:57;5.28;;;4.45;;
44000;SDS011;29660;42.892;24.710;2023-06-26T11:58:20;8.35;;;4.90;;
44000;SDS011;29660;42.892;24.710;2023-06-26T12:03:42;6.80;;;4.38;;
44000;SDS011;29660;42.892;24.710;2023-06-26T12:09:05;5.28;;;3.90;;
44000;SDS011;29660;42.892;24.710;2023-06-26T12:14:30;5.30;;;4.13;;
44000;SDS011;29660;42.892;24.710;2023-06-26T12:19:53;7.18;;;3.97;;
44000;SDS011;29660;42.892;24.710;2023-06-26T12:25:15;8.75;;;4.80;;
44000;SDS011;29660;42.892;24.710;2023-06-26T12:30:47;7.53;;;3.45;;
44000;SDS011;29660;42.892;24.710;2023-06-26T12:36:30;5.93;;;3.50;;
44000;SDS011;29660;42.892;24.710;2023-06-26T12:42:01;4.85;;;3.50;;
44000;SDS011;29660;42.892;24.710;2023-06-26T12:47:27;3.90;;;3.13;;
44000;SDS011;29660;42.892;24.710;2023-06-26T12:52:52;4.82;;;3.60;;
44000;SDS011;29660;42.892;24.710;2023-06-26T12:58:14;5.45;;;3.40;;
44000;SDS011;29660;42.892;24.710;2023-06-26T13:03:37;3.97;;;3.00;;
44000;SDS011;29660;42.892;24.710;2023-06-26T13:08:59;13.60;;;3.25;;
44000;SDS011;29660;42.892;24.710;2023-06-26T13:14:21;3.70;;;2.60;;
44000;SDS011;29660;42.892;24.710;2023-06-26T13:19:43;5.22;;;3.80;;
44000;SDS011;29660;42.892;24.710;2023-06-26T13:25:06;6.10;;;3.58;;
44000;SDS011;29660;42.892;24.710;2023-06-26T13:30:28;8.07;;;3.38;;
44000;SDS011;29660;42.892;24.710;2023-06-26T13:35:51;5.18;;;3.95;;
44000;SDS011;29660;42.892;24.710;2023-06-26T13:41:14;8.80;;;3.85;;
44000;SDS011;29660;42.892;24.710;2023-06-26T13:46:36;4.95;;;3.88;;
44000;SDS011;29660;42.892;24.710;2023-06-26T13:51:58;5.35;;;4.20;;
44000;SDS011;29660;42.892;24.710;2023-06-26T13:57:21;6.25;;;3.05;;
44000;SDS011;29660;42.892;24.710;2023-06-26T14:02:44;6.18;;;3.67;;
44000;SDS011;29660;42.892;24.710;2023-06-26T14:08:07;4.43;;;4.00;;
44000;SDS011;29660;42.892;24.710;2023-06-26T14:13:30;4.35;;;3.58;;
44000;SDS011;29660;42.892;24.710;2023-06-26T14:18:52;6.20;;;3.90;;
44000;SDS011;29660;42.892;24.710;2023-06-26T14:24:14;5.63;;;4.10;;
44000;SDS011;29660;42.892;24.710;2023-06-26T14:29:36;6.00;;;4.20;;
44000;SDS011;29660;42.892;24.710;2023-06-26T14:34:59;7.93;;;4.45;;
44000;SDS011;29660;42.892;24.710;2023-06-26T14:40:21;5.60;;;4.20;;
44000;SDS011;29660;42.892;24.710;2023-06-26T14:45:43;6.43;;;4.10;;
44000;SDS011;29660;42.892;24.710;2023-06-26T14:51:05;5.90;;;4.20;;
44000;SDS011;29660;42.892;24.710;2023-06-26T14:56:28;7.78;;;4.30;;
44000;SDS011;29660;42.892;24.710;2023-06-26T15:01:50;6.38;;;3.97;;
44000;SDS011;29660;42.892;24.710;2023-06-26T15:07:12;5.28;;;3.60;;
44000;SDS011;29660;42.892;24.710;2023-06-26T15:12:34;5.18;;;4.03;;
44000;SDS011;29660;42.892;24.710;2023-06-26T15:17:56;10.15;;;4.88;;
44000;SDS011;29660;42.892;24.710;2023-06-26T15:23:18;7.28;;;4.50;;
44000;SDS011;29660;42.892;24.710;2023-06-26T15:28:41;8.57;;;4.95;;
44000;SDS011;29660;42.892;24.710;2023-06-26T15:34:03;6.35;;;4.47;;
44000;SDS011;29660;42.892;24.710;2023-06-26T15:39:26;10.40;;;7.50;;
44000;SDS011;29660;42.892;24.710;2023-06-26T15:44:48;6.70;;;4.32;;
44000;SDS011;29660;42.892;24.710;2023-06-26T15:50:10;5.57;;;4.57;;
44000;SDS011;29660;42.892;24.710;2023-06-26T15:55:32;7.10;;;4.80;;
44000;SDS011;29660;42.892;24.710;2023-06-26T16:00:54;8.23;;;4.93;;
44000;SDS011;29660;42.892;24.710;2023-06-26T16:06:17;7.90;;;4.65;;
44000;SDS011;29660;42.892;24.710;2023-06-26T16:11:39;7.93;;;4.55;;
44000;SDS011;29660;42.892;24.710;2023-06-26T16:17:01;8.32;;;4.82;;
44000;SDS011;29660;42.892;24.710;2023-06-26T16:22:25;8.77;;;4.57;;
44000;SDS011;29660;42.892;24.710;2023-06-26T16:27:47;6.68;;;4.50;;
44000;SDS011;29660;42.892;24.710;2023-06-26T16:33:10;7.10;;;4.65;;
44000;SDS011;29660;42.892;24.710;2023-06-26T16:38:32;6.65;;;4.50;;
44000;SDS011;29660;42.892;24.710;2023-06-26T16:43:54;7.50;;;4.28;;
44000;SDS011;29660;42.892;24.710;2023-06-26T16:49:17;7.75;;;4.88;;
44000;SDS011;29660;42.892;24.710;2023-06-26T16:54:39;6.95;;;4.50;;
44000;SDS011;29660;42.892;24.710;2023-06-26T17:00:02;11.20;;;5.30;;
44000;SDS011;29660;42.892;24.710;2023-06-26T17:05:25;9.10;;;4.68;;
44000;SDS011;29660;42.892;24.710;2023-06-26T17:10:48;7.90;;;5.07;;
44000;SDS011;29660;42.892;24.710;2023-06-26T17:16:10;10.32;;;6.38;;
44000;SDS011;29660;42.892;24.710;2023-06-26T17:21:33;11.25;;;4.80;;
44000;SDS011;29660;42.892;24.710;2023-06-26T17:27:06;7.65;;;5.97;;
44000;SDS011;29660;42.892;24.710;2023-06-26T17:32:29;11.32;;;6.18;;
44000;SDS011;29660;42.892;24.710;2023-06-26T17:37:52;12.90;;;6.30;;
44000;SDS011;29660;42.892;24.710;2023-06-26T17:43:14;12.43;;;6.63;;
44000;SDS011;29660;42.892;24.710;2023-06-26T17:48:39;10.10;;;6.50;;
44000;SDS011;29660;42.892;24.710;2023-06-26T17:54:01;11.55;;;5.82;;
44000;SDS011;29660;42.892;24.710;2023-06-26T17:59:23;12.27;;;6.15;;
44000;SDS011;29660;42.892;24.710;2023-06-26T18:04:45;11.00;;;5.90;;
44000;SDS011;29660;42.892;24.710;2023-06-26T18:10:08;15.80;;;6.95;;
44000;SDS011;29660;42.892;24.710;2023-06-26T18:15:30;3.78;;;3.17;;
44000;SDS011;29660;42.892;24.710;2023-06-26T18:20:52;4.88;;;2.83;;
44000;SDS011;29660;42.892;24.710;2023-06-26T18:26:16;5.30;;;2.08;;
44000;SDS011;29660;42.892;24.710;2023-06-26T18:31:39;5.25;;;2.80;;
44000;SDS011;29660;42.892;24.710;2023-06-26T18:37:01;4.93;;;1.80;;
44000;SDS011;29660;42.892;24.710;2023-06-26T18:42:23;2.65;;;1.73;;
44000;SDS011;29660;42.892;24.710;2023-06-26T18:47:45;3.47;;;1.70;;
44000;SDS011;29660;42.892;24.710;2023-06-26T18:53:08;4.07;;;2.70;;
44000;SDS011;29660;42.892;24.710;2023-06-26T18:58:31;1.95;;;1.75;;
44000;SDS011;29660;42.892;24.710;2023-06-26T19:03:53;3.92;;;2.10;;
44000;SDS011;29660;42.892;24.710;2023-06-26T19:09:15;3.92;;;2.40;;
44000;SDS011;29660;42.892;24.710;2023-06-26T19:14:37;5.25;;;2.30;;
44000;SDS011;29660;42.892;24.710;2023-06-26T19:20:02;5.55;;;4.18;;
44000;SDS011;29660;42.892;24.710;2023-06-26T19:25:26;6.45;;;2.97;;
44000;SDS011;29660;42.892;24.710;2023-06-26T19:30:48;5.43;;;2.50;;
44000;SDS011;29660;42.892;24.710;2023-06-26T19:36:11;7.93;;;2.20;;
44000;SDS011;29660;42.892;24.710;2023-06-26T19:41:36;5.25;;;2.00;;
44000;SDS011;29660;42.892;24.710;2023-06-26T19:46:59;4.07;;;2.10;;
44000;SDS011;29660;42.892;24.710;2023-06-26T19:52:21;6.38;;;2.80;;
44000;SDS011;29660;42.892;24.710;2023-06-26T19:57:43;6.47;;;2.75;;
44000;SDS011;29660;42.892;24.710;2023-06-26T20:03:05;5.05;;;4.43;;
44000;SDS011;29660;42.892;24.710;2023-06-26T20:08:27;7.75;;;4.18;;
44000;SDS011;29660;42.892;24.710;2023-06-26T20:13:50;8.52;;;2.90;;
44000;SDS011;29660;42.892;24.710;2023-06-26T20:19:12;8.80;;;3.13;;
44000;SDS011;29660;42.892;24.710;2023-06-26T20:24:34;9.02;;;3.40;;
44000;SDS011;29660;42.892;24.710;2023-06-26T20:29:57;8.02;;;3.60;;
44000;SDS011;29660;42.892;24.710;2023-06-26T20:35:20;6.97;;;4.07;;
44000;SDS011;29660;42.892;24.710;2023-06-26T20:40:43;6.10;;;3.58;;
44000;SDS011;29660;42.892;24.710;2023-06-26T20:46:06;8.60;;;5.57;;
44000;SDS011;29660;42.892;24.710;2023-06-26T20:51:29;8.38;;;5.85;;
44000;SDS011;29660;42.892;24.710;2023-06-26T20:56:51;6.03;;;4.00;;
44000;SDS011;29660;42.892;24.710;2023-06-26T21:02:13;8.43;;;4.15;;
44000;SDS011;29660;42.892;24.710;2023-06-26T21:07:35;9.27;;;4.13;;
44000;SDS011;29660;42.892;24.710;2023-06-26T21:12:58;9.73;;;4.10;;
44000;SDS011;29660;42.892;24.710;2023-06-26T21:18:20;8.75;;;4.18;;
44000;SDS011;29660;42.892;24.710;2023-06-26T21:23:42;7.68;;;4.38;;
44000;SDS011;29660;42.892;24.710;2023-06-26T21:29:04;7.90;;;4.13;;
44000;SDS011;29660;42.892;24.710;2023-06-26T21:34:26;9.88;;;4.07;;
44000;SDS011;29660;42.892;24.710;2023-06-26T21:39:48;8.68;;;5.57;;
44000;SDS011;29660;42.892;24.710;2023-06-26T21:45:11;6.88;;;5.32;;
44000;SDS011;29660;42.892;24.710;2023-06-26T21:50:33;6.13;;;4.93;;
44000;SDS011;29660;42.892;24.710;2023-06-26T21:55:57;9.13;;;4.88;;
44000;SDS011;29660;42.892;24.710;2023-06-26T22:01:19;9.18;;;4.85;;
44000;SDS011;29660;42.892;24.710;2023-06-26T22:06:42;8.10;;;5.00;;
44000;SDS011;29660;42.892;24.710;2023-06-26T22:12:05;10.48;;;3.97;;
44000;SDS011;29660;42.892;24.710;2023-06-26T22:17:29;5.15;;;3.78;;
44000;SDS011;29660;42.892;24.710;2023-06-26T22:22:55;11.52;;;4.32;;
44000;SDS011;29660;42.892;24.710;2023-06-26T22:28:17;9.45;;;4.45;;
44000;SDS011;29660;42.892;24.710;2023-06-26T22:33:40;7.55;;;4.47;;
44000;SDS011;29660;42.892;24.710;2023-06-26T22:39:02;8.23;;;4.55;;
44000;SDS011;29660;42.892;24.710;2023-06-26T22:44:26;7.07;;;4.82;;
44000;SDS011;29660;42.892;24.710;2023-06-26T22:49:48;7.45;;;4.95;;
44000;SDS011;29660;42.892;24.710;2023-06-26T22:55:10;10.80;;;4.55;;
44000;SDS011;29660;42.892;24.710;2023-06-26T23:00:32;11.70;;;4.78;;
44000;SDS011;29660;42.892;24.710;2023-06-26T23:05:55;8.38;;;5.20;;
44000;SDS011;29660;42.892;24.710;2023-06-26T23:11:18;9.45;;;4.78;;
44000;SDS011;29660;42.892;24.710;2023-06-26T23:16:41;9.80;;;4.80;;
44000;SDS011;29660;42.892;24.710;2023-06-26T23:22:04;10.88;;;5.25;;
44000;SDS011;29660;42.892;24.710;2023-06-26T23:27:33;12.88;;;4.95;;
44000;SDS011;29660;42.892;24.710;2023-06-26T23:32:55;11.32;;;4.65;;
44000;SDS011;29660;42.892;24.710;2023-06-26T23:38:18;8.73;;;4.85;;
44000;SDS011;29660;42.892;24.710;2023-06-26T23:43:40;9.10;;;5.10;;
44000;SDS011;29660;42.892;24.710;2023-06-26T23:49:03;6.60;;;5.20;;
44000;SDS011;29660;42.892;24.710;2023-06-26T23:54:25;9.68;;;4.97;;
44000;SDS011;29660;42.892;24.710;2023-06-26T23:59:47;11.52;;;4.78;;
